createdAt,value
2022-09-07T00:01:16.072Z,99.90
2022-09-07T00:06:19.016Z,99.90
2022-09-07T00:11:22.089Z,99.90
2022-09-07T00:16:28.389Z,99.90
2022-09-07T00:21:31.340Z,99.90
2022-09-07T00:26:34.145Z,99.90
2022-09-07T00:31:37.126Z,99.90
2022-09-07T00:36:39.881Z,99.90
2022-09-07T00:41:42.672Z,99.90
2022-09-07T00:46:47.215Z,99.90
2022-09-07T00:51:58.058Z,99.90
2022-09-07T00:57:00.998Z,99.90
2022-09-07T01:02:04.382Z,99.90
2022-09-07T01:07:08.157Z,99.90
2022-09-07T01:12:11.224Z,99.90
2022-09-07T01:17:32.477Z,99.90
2022-09-07T01:23:06.085Z,99.90
2022-09-07T01:28:30.961Z,99.90
2022-09-07T01:33:36.781Z,99.90
2022-09-07T01:38:46.742Z,99.90
2022-09-07T01:44:04.223Z,99.90
2022-09-07T01:49:18.836Z,99.90
2022-09-07T01:54:31.259Z,99.90
2022-09-07T01:59:41.834Z,99.90
2022-09-07T02:05:07.498Z,99.90
2022-09-07T02:10:15.810Z,99.90
2022-09-07T02:15:27.756Z,99.90
2022-09-07T02:20:37.563Z,99.90
2022-09-07T02:25:47.477Z,99.90
2022-09-07T02:30:50.279Z,99.90
2022-09-07T02:35:53.176Z,99.90
2022-09-07T02:40:58.421Z,99.90
2022-09-07T02:46:22.144Z,99.90
2022-09-07T02:51:27.647Z,99.90
2022-09-07T02:56:51.373Z,99.90
2022-09-07T03:02:13.958Z,99.90
2022-09-07T03:07:24.466Z,99.90
2022-09-07T03:12:40.064Z,99.90
2022-09-07T03:17:44.304Z,99.90
2022-09-07T03:22:48.548Z,99.90
2022-09-07T03:27:51.234Z,99.90
2022-09-07T03:32:53.917Z,99.90
2022-09-07T03:37:57.047Z,99.90
2022-09-07T03:42:59.858Z,99.90
2022-09-07T03:48:02.785Z,99.90
2022-09-07T03:53:05.548Z,99.90
2022-09-07T03:58:08.189Z,99.90
2022-09-07T04:03:10.922Z,99.90
2022-09-07T04:08:14.057Z,99.90
2022-09-07T04:13:16.955Z,99.90
2022-09-07T04:18:20.317Z,99.90
2022-09-07T04:23:23.403Z,99.90
2022-09-07T04:28:26.194Z,99.90
2022-09-07T04:33:31.267Z,99.90
2022-09-07T04:38:34.003Z,99.90
2022-09-07T04:43:38.174Z,99.90
2022-09-07T04:48:40.939Z,99.90
2022-09-07T04:53:43.613Z,99.90
2022-09-07T04:58:47.307Z,99.90
2022-09-07T05:03:50.816Z,99.90
2022-09-07T05:08:55.040Z,99.90
2022-09-07T05:14:00.022Z,99.90
2022-09-07T05:19:04.985Z,99.90
2022-09-07T05:24:07.730Z,99.90
2022-09-07T05:34:34.369Z,99.90
2022-09-07T05:39:37.145Z,99.90
2022-09-07T05:49:46.109Z,99.90
2022-09-07T05:54:48.802Z,99.90
2022-09-07T05:59:51.461Z,99.90
2022-09-07T06:04:54.237Z,99.90
2022-09-07T06:15:20.255Z,99.90
2022-09-07T06:20:23.045Z,99.90
2022-09-07T06:25:25.985Z,99.90
2022-09-07T06:30:29.675Z,99.90
2022-09-07T06:35:32.555Z,99.90
2022-09-07T06:40:35.524Z,99.90
2022-09-07T06:45:38.361Z,99.90
2022-09-07T06:50:41.677Z,99.90
2022-09-07T06:55:45.170Z,99.90
2022-09-07T07:00:48.095Z,99.90
2022-09-07T07:05:55.805Z,99.90
2022-09-07T07:11:22.944Z,99.90
2022-09-07T07:16:26.416Z,99.90
2022-09-07T07:21:42.878Z,99.90
2022-09-07T07:26:52.127Z,99.90
2022-09-07T07:31:55.067Z,99.90
2022-09-07T07:36:57.835Z,99.90
2022-09-07T07:42:03.109Z,99.90
2022-09-07T07:47:07.835Z,99.90
2022-09-07T07:57:34.094Z,99.90
2022-09-07T08:02:36.882Z,99.90
2022-09-07T08:07:39.636Z,99.90
2022-09-07T08:12:42.505Z,99.90
2022-09-07T08:17:48.443Z,99.90
2022-09-07T08:22:51.384Z,99.90
2022-09-07T08:27:54.146Z,99.90
2022-09-07T08:32:56.955Z,99.90
2022-09-07T08:37:59.686Z,99.90
2022-09-07T08:43:37.876Z,99.90
2022-09-07T08:48:41.316Z,99.90
2022-09-07T08:53:49.707Z,99.90
2022-09-07T08:58:56.865Z,98.50
2022-09-07T09:04:16.061Z,92.80
2022-09-07T09:09:41.317Z,98.10
2022-09-07T09:15:14.912Z,93.60
2022-09-07T09:20:40.454Z,84.30
2022-09-07T09:25:55.953Z,79.90
2022-09-07T09:30:58.759Z,73.70
2022-09-07T09:36:02.133Z,72.80
2022-09-07T09:41:08.295Z,73.90
2022-09-07T09:46:27.957Z,71.10
2022-09-07T09:57:04.679Z,67.80
2022-09-07T10:08:28.861Z,58.10
2022-09-07T10:13:46.994Z,54.00
2022-09-07T10:18:58.283Z,52.30
2022-09-07T10:24:15.384Z,51.60
2022-09-07T10:29:36.092Z,56.30
2022-09-07T10:34:41.694Z,51.20
2022-09-07T10:40:07.356Z,52.80
2022-09-07T10:45:43.491Z,52.40
2022-09-07T10:50:51.750Z,47.70
2022-09-07T10:56:09.175Z,49.30
2022-09-07T11:01:39.492Z,46.90
2022-09-07T11:06:44.379Z,50.70
2022-09-07T11:12:07.073Z,47.50
2022-09-07T11:17:30.760Z,47.70
2022-09-07T11:22:44.639Z,48.10
2022-09-07T11:28:02.728Z,50.10
2022-09-07T11:33:29.726Z,46.90
2022-09-07T11:38:42.189Z,45.80
2022-09-07T11:44:13.789Z,45.40
2022-09-07T11:49:22.248Z,45.00
2022-09-07T11:54:27.878Z,43.20
2022-09-07T12:00:00.976Z,42.10
2022-09-07T12:05:23.487Z,40.00
2022-09-07T12:10:51.797Z,40.50
2022-09-07T12:16:33.093Z,44.10
2022-09-07T12:21:46.395Z,39.50
2022-09-07T12:26:50.794Z,38.10
2022-09-07T12:31:58.842Z,39.40
2022-09-07T12:37:12.426Z,38.60
2022-09-07T12:42:37.331Z,39.60
2022-09-07T12:47:41.205Z,38.60
2022-09-07T12:52:45.807Z,38.20
2022-09-07T12:58:06.976Z,38.90
2022-09-07T13:08:52.575Z,39.60
2022-09-07T13:14:16.966Z,37.20
2022-09-07T13:19:58.735Z,36.40
2022-09-07T13:25:45.805Z,37.00
2022-09-07T13:31:16.193Z,37.10
2022-09-07T13:36:26.449Z,36.50
2022-09-07T13:41:41.443Z,36.20
2022-09-07T13:47:12.029Z,37.90
2022-09-07T13:52:31.046Z,39.30
2022-09-07T13:57:55.785Z,39.20
2022-09-07T14:03:06.646Z,36.50
2022-09-07T14:08:25.415Z,36.70
2022-09-07T14:13:28.239Z,37.10
2022-09-07T14:18:32.455Z,39.40
2022-09-07T14:23:37.005Z,38.30
2022-09-07T14:28:40.089Z,40.10
2022-09-07T14:33:53.706Z,38.00
2022-09-07T14:39:04.964Z,40.40
2022-09-07T14:44:27.306Z,39.50
2022-09-07T14:49:30.469Z,40.40
2022-09-07T14:54:34.559Z,40.10
2022-09-07T14:59:44.331Z,42.00
2022-09-07T15:05:08.210Z,43.10
2022-09-07T15:10:25.978Z,42.70
2022-09-07T15:15:37.126Z,42.30
2022-09-07T15:20:45.525Z,41.90
2022-09-07T15:25:53.805Z,41.70
2022-09-07T15:36:20.440Z,45.30
2022-09-07T15:41:24.508Z,45.80
2022-09-07T15:46:27.607Z,46.10
2022-09-07T16:13:08.742Z,52.50
2022-09-07T16:18:18.197Z,55.70
2022-09-07T16:23:21.196Z,60.00
2022-09-07T16:28:24.020Z,69.10
2022-09-07T16:33:33.067Z,68.80
2022-09-07T16:38:44.997Z,90.20
2022-09-07T16:43:48.380Z,88.50
2022-09-07T16:48:52.488Z,98.00
2022-09-07T16:53:58.522Z,99.90
2022-09-07T16:59:04.480Z,99.90
2022-09-07T17:04:10.871Z,99.90
2022-09-07T17:09:14.912Z,99.90
2022-09-07T17:14:17.709Z,99.90
2022-09-07T17:19:30.289Z,99.90
2022-09-07T17:24:33.548Z,99.90
2022-09-07T17:29:37.659Z,99.90
2022-09-07T17:34:40.648Z,99.90
2022-09-07T17:39:44.423Z,99.90
2022-09-07T17:44:52.568Z,99.90
2022-09-07T17:49:56.022Z,99.90
2022-09-07T17:54:58.865Z,99.90
2022-09-07T18:00:17.119Z,99.90
2022-09-07T18:05:19.940Z,99.90
2022-09-07T18:10:22.918Z,99.90
2022-09-07T18:15:26.002Z,99.90
2022-09-07T18:20:33.560Z,99.90
2022-09-07T18:25:37.479Z,99.90
2022-09-07T18:30:42.499Z,99.90
2022-09-07T18:35:46.765Z,99.90
2022-09-07T18:40:51.094Z,99.90
2022-09-07T18:45:54.965Z,99.90
2022-09-07T18:50:58.250Z,99.90
2022-09-07T18:56:21.689Z,99.90
2022-09-07T19:01:25.565Z,99.90
2022-09-07T19:06:28.489Z,99.90
2022-09-07T19:11:31.799Z,99.90
2022-09-07T19:16:35.299Z,99.90
2022-09-07T19:21:39.970Z,99.90
2022-09-07T19:26:46.009Z,99.90
2022-09-07T19:32:07.109Z,99.90
2022-09-07T19:37:12.433Z,99.90
2022-09-07T19:42:15.490Z,99.90
2022-09-07T19:47:18.844Z,99.90
2022-09-07T19:52:21.620Z,99.90
2022-09-07T19:57:24.560Z,99.90
2022-09-07T20:02:27.390Z,99.90
2022-09-07T20:07:30.140Z,99.90
2022-09-07T20:12:34.227Z,99.90
2022-09-07T20:17:37.841Z,99.90
2022-09-07T20:22:40.772Z,99.90
2022-09-07T20:27:43.991Z,99.90
2022-09-07T20:32:46.723Z,99.90
2022-09-07T20:37:49.530Z,99.90
2022-09-07T20:42:52.440Z,99.90
2022-09-07T20:47:55.332Z,99.90
2022-09-07T20:52:58.073Z,99.90
2022-09-07T20:58:00.746Z,99.90
2022-09-07T21:03:03.493Z,99.90
2022-09-07T21:08:06.182Z,99.90
2022-09-07T21:13:09.864Z,99.90
2022-09-07T21:18:17.414Z,99.90
2022-09-07T21:23:20.055Z,99.90
2022-09-07T21:28:24.030Z,99.90
2022-09-07T21:33:28.820Z,99.90
2022-09-07T21:38:31.557Z,99.90
2022-09-07T21:43:34.694Z,99.90
2022-09-07T21:48:37.423Z,99.90
2022-09-07T21:53:40.594Z,99.90
2022-09-07T21:58:43.935Z,99.90
2022-09-07T22:03:48.440Z,99.90
2022-09-07T22:08:51.469Z,99.90
2022-09-07T22:13:58.154Z,99.90
2022-09-07T22:19:01.143Z,99.90
2022-09-07T22:24:06.243Z,99.90
2022-09-07T22:29:12.008Z,99.90
2022-09-07T22:34:15.235Z,99.90
2022-09-07T22:39:19.426Z,99.90
2022-09-07T22:44:22.280Z,99.90
2022-09-07T22:49:25.015Z,99.90
2022-09-07T22:54:27.679Z,99.90
2022-09-07T22:59:31.140Z,99.90
2022-09-07T23:04:34.018Z,99.90
2022-09-07T23:09:36.734Z,99.90
2022-09-07T23:14:39.496Z,99.90
2022-09-07T23:19:42.106Z,99.90
2022-09-07T23:24:44.769Z,99.90
2022-09-07T23:29:47.428Z,99.90
2022-09-07T23:34:49.986Z,99.90
2022-09-07T23:39:52.591Z,99.90
2022-09-07T23:44:55.633Z,99.90
2022-09-07T23:49:58.265Z,99.90
2022-09-07T23:55:00.908Z,99.90
